Weather at Arran Heliport

Public forecast

Using degrees Celsius for public forecast. Weather courtesy of forecast.io.

Closest aviation weather report (METAR) to Arran Heliport

Closest report is Glasgow Prestwick Airport, 19.1 nm (35.4 km) ESE.

2024/05/20 11:50 (retrieved 21 minutes ago)

EGPK 201150Z 05009KT 9999 FEW027 SCT034 18/12 Q1016

Closest aviation forecast (TAF) to Arran Heliport

Closest forecast is Glasgow Prestwick Airport, 19.1 nm (35.4 km) ESE.

2024/05/20 12:00 (retrieved 11 minutes ago)

TAF EGPK 201054Z 2012/2112 06008KT 9999 SCT025 PROB40 2015/2020 26010KT